Royal Oak Township, Michigan
Current Conditions -  °F | °C
As of 3:53 PM on Saturday 22 Nov 2014 (Local Time) from KDET Reporting Station
Overcast Overcast  
Wind Chill: 41°   Ceiling: 1500
Heat Index: 47°   Visibility: 7mi
Dew Point: 40°   Wind: 15mph
Humidity: 77%   Direction: 230°SW
Pressure: 29.96"   Gusts: NA
Location:  42.4581°N, 83.135°W
Report Text: KDET 222053Z 23013KT 7SM OVC015 08/04 A2996 RMK AO2 SLP151 T00830044 58012
Loading
Personal Weather Stations






























Interactive Weather Map New forecast layout! Learn more

10-Day Weather Forecast

Advertisements
Track Severe Weather on mobile